Capitol Logistics 329


KRIV
March Air Reserve Base
Riverside, California, US
KCLT
Charlotte/Douglas International Airport
Charlotte, North Carolina, US

Route Details

Aircraft Information
Primary: Boeing 767-300BDSF
Backup: Not Available
Route Data
Distance: 1791nm
Sched. Duration: 4h 00m
Avg. Duration: 4h 15m (+15m)
Times Flown: 2
Recm'd Route: TRM J134 DRK J6 IRW KM33G SPKER NEWBB TAZZA FILPZ3
Planned Altitude: 35,000ft
Origin Wx: KRIV 061158Z AUTO 00000KT 10SM CLR 13/06 A2987 RMK AO2 SLP102 T01270063 10219 20127 55000
Dest. Wx: KCLT 061152Z 00000KT 10SM FEW120 SCT250 24/20 A3009 RMK AO2 SLP179 T02390200 10244 20200 53018
Notes:

Financial History
Total Freight: 131,500lbs
Average Load: 65,750lbs/flt
Fuel Used: 80,149lbs
Avg. Fuel Used: 40,075lbs/flt
Fuel Expense: $55,303
Avg. Fuel Expense: $27,651
Avg. Fuel Cost: $0.69/lbs
Total Gross Income: $210,474
Pilot Pay: $468
Total Expenses: $22,835
Total Revenue: $130,135
Average Revenue: $105,237.13